DEN weather

Denver International Airport
Denver, Colorado, United States

Public forecast

Using degrees Fahrenheit for public forecast. Weather courtesy of forecast.io.

METAR (pilot weather report)

Retrieved 2018/12/13 02:53 UTC (14 minutes ago):

KDEN 130253Z 35015G26KT 10SM OVC055 04/M10 A2985 RMK AO2 PK WND 36030/0240 SLP092 T00391100 51055

TAF (pilot weather forecast)

Forecast is more than 12 hours old.

Retrieved 2018/12/12 00:42 UTC (1 day ago):

TAF KDEN 122340Z 1300/1406 30018G35KT P6SM BKN100 BKN150 FM130200 35016G32KT P6SM VCSH SCT050 BKN100 FM130700 34008KT P6SM SCT040 OVC090 FM131000 21007KT P6SM FEW080 SCT120 FM131900 02005KT P6SM FEW120